createdAt,value
2023-04-02T00:01:06.281Z,95071.91
2023-04-02T00:04:22.272Z,95069.18
2023-04-02T00:07:15.360Z,95070.14
2023-04-02T00:09:43.470Z,95070.83
2023-04-02T00:12:16.928Z,95073.08
2023-04-02T00:14:49.452Z,95068.79
2023-04-02T00:17:18.040Z,95069.10
2023-04-02T00:19:53.075Z,95068.55
2023-04-02T00:22:27.085Z,95069.77
2023-04-02T00:24:57.207Z,95073.11
2023-04-02T00:27:25.182Z,95072.59
2023-04-02T00:29:56.986Z,95076.19
2023-04-02T00:32:28.354Z,95075.56
2023-04-02T00:34:57.734Z,95077.14
2023-04-02T00:37:38.610Z,95073.73
2023-04-02T00:40:19.182Z,95070.23
2023-04-02T00:42:49.416Z,95070.33
2023-04-02T00:45:24.906Z,95069.03
2023-04-02T00:47:53.116Z,95069.02
2023-04-02T00:50:29.997Z,95068.05
2023-04-02T00:53:00.126Z,95071.51
2023-04-02T00:55:36.615Z,95074.58
2023-04-02T00:58:19.218Z,95077.46
2023-04-02T01:00:51.445Z,95075.64
2023-04-02T01:03:30.023Z,95077.20
2023-04-02T01:06:10.925Z,95076.61
2023-04-02T01:09:03.849Z,95078.95
2023-04-02T01:11:53.814Z,95081.04
2023-04-02T01:14:43.242Z,95083.55
2023-04-02T01:17:28.371Z,95083.13
2023-04-02T01:20:25.422Z,95088.04
2023-04-02T01:23:05.885Z,95092.63
2023-04-02T01:25:58.766Z,95090.38
2023-04-02T01:28:35.457Z,95095.13
2023-04-02T01:31:04.109Z,95095.66
2023-04-02T01:33:35.346Z,95096.85
2023-04-02T01:36:15.598Z,95095.08
2023-04-02T01:38:55.005Z,95095.39
2023-04-02T01:41:51.655Z,95100.45
2023-04-02T01:44:32.296Z,95100.87
2023-04-02T01:47:04.013Z,95099.92
2023-04-02T01:49:32.181Z,95100.40
2023-04-02T01:52:01.191Z,95103.05
2023-04-02T01:54:41.433Z,95103.05
2023-04-02T01:57:09.987Z,95105.08
2023-04-02T01:59:37.991Z,95104.59
2023-04-02T02:02:17.910Z,95107.99
2023-04-02T02:04:45.996Z,95107.73
2023-04-02T02:07:18.466Z,95112.32
2023-04-02T02:09:49.829Z,95112.53
2023-04-02T02:12:18.119Z,95109.91
2023-04-02T02:14:48.055Z,95113.78
2023-04-02T02:17:21.452Z,95116.51
2023-04-02T02:19:55.308Z,95121.42
2023-04-02T02:22:32.377Z,95118.88
2023-04-02T02:25:05.252Z,95115.95
2023-04-02T02:27:49.733Z,95119.58
2023-04-02T02:30:25.018Z,95122.40
2023-04-02T02:33:05.042Z,95121.36
2023-04-02T02:35:56.655Z,95122.52
2023-04-02T02:38:41.120Z,95121.10
2023-04-02T02:41:28.870Z,95121.94
2023-04-02T02:44:04.538Z,95125.01
2023-04-02T02:46:33.900Z,95125.42
2023-04-02T02:49:04.656Z,95130.73
2023-04-02T02:51:47.195Z,95130.89
2023-04-02T02:54:19.739Z,95131.29
2023-04-02T02:56:57.154Z,95134.73
2023-04-02T02:59:26.281Z,95136.65
2023-04-02T03:01:54.773Z,95139.98
2023-04-02T03:04:24.344Z,95140.98
2023-04-02T03:06:56.923Z,95139.84
2023-04-02T03:09:45.729Z,95141.23
2023-04-02T03:12:35.052Z,95142.05
2023-04-02T03:15:19.615Z,95144.70
2023-04-02T03:17:56.134Z,95145.29
2023-04-02T03:20:35.607Z,95146.33
2023-04-02T03:23:27.858Z,95152.65
2023-04-02T03:26:05.457Z,95148.58
2023-04-02T03:28:39.671Z,95150.82
2023-04-02T03:31:16.709Z,95153.63
2023-04-02T03:33:51.412Z,95160.46
2023-04-02T03:36:30.368Z,95162.97
2023-04-02T03:39:14.976Z,95160.41
2023-04-02T03:41:48.472Z,95164.94
2023-04-02T03:44:27.028Z,95167.61
2023-04-02T03:47:01.462Z,95171.89
2023-04-02T03:49:43.326Z,95170.48
2023-04-02T03:52:15.245Z,95173.98
2023-04-02T03:54:53.737Z,95175.82
2023-04-02T03:57:36.900Z,95180.89
2023-04-02T04:00:17.339Z,95178.54
2023-04-02T04:02:57.410Z,95185.02
2023-04-02T04:05:32.017Z,95181.71
2023-04-02T04:08:06.887Z,95188.65
2023-04-02T04:10:35.333Z,95187.49
2023-04-02T04:13:11.341Z,95187.06
2023-04-02T04:15:53.766Z,95188.92
2023-04-02T04:18:34.962Z,95190.64
2023-04-02T04:21:42.653Z,95195.60
2023-04-02T04:24:22.776Z,95198.14
2023-04-02T04:27:03.638Z,95202.58
2023-04-02T04:29:55.866Z,95201.69
2023-04-02T04:32:33.851Z,95203.67
2023-04-02T04:35:26.712Z,95206.50
2023-04-02T04:38:07.646Z,95205.35
2023-04-02T04:40:42.232Z,95207.36
2023-04-02T04:43:22.830Z,95209.73
2023-04-02T04:45:58.553Z,95208.39
2023-04-02T04:48:35.302Z,95214.69
2023-04-02T04:51:16.101Z,95214.80
2023-04-02T04:53:48.507Z,95215.97
2023-04-02T04:56:21.455Z,95223.36
2023-04-02T04:59:02.469Z,95223.54
2023-04-02T05:01:40.722Z,95228.08
2023-04-02T05:04:41.336Z,95231.27
2023-04-02T05:07:28.031Z,95238.86
2023-04-02T05:10:17.231Z,95240.42
2023-04-02T05:12:59.562Z,95242.16
2023-04-02T05:15:36.409Z,95241.80
2023-04-02T05:18:34.299Z,95245.21
2023-04-02T05:21:07.958Z,95242.51
2023-04-02T05:23:47.651Z,95247.30
2023-04-02T05:26:22.031Z,95252.23
2023-04-02T05:29:18.458Z,95255.11
2023-04-02T05:32:01.615Z,95259.23
2023-04-02T05:34:35.318Z,95263.72
2023-04-02T05:37:07.090Z,95263.05
2023-04-02T05:39:44.843Z,95261.77
2023-04-02T05:42:21.324Z,95265.48
2023-04-02T05:45:27.070Z,95265.45
2023-04-02T05:48:01.725Z,95268.27
2023-04-02T05:50:40.535Z,95269.80
2023-04-02T05:53:21.887Z,95270.58
2023-04-02T05:56:06.268Z,95276.19
2023-04-02T05:58:44.821Z,95275.83
2023-04-02T06:01:51.096Z,95279.53
2023-04-02T06:04:35.515Z,95287.70
2023-04-02T06:07:13.840Z,95290.05
2023-04-02T06:09:56.273Z,95291.40
2023-04-02T06:12:42.055Z,95293.50
2023-04-02T06:15:16.134Z,95294.17
2023-04-02T06:17:53.556Z,95300.91
2023-04-02T06:20:21.465Z,95297.20
2023-04-02T06:22:55.899Z,95297.20
2023-04-02T06:25:32.551Z,95299.18
2023-04-02T06:28:06.170Z,95301.21
2023-04-02T06:30:39.226Z,95301.52
2023-04-02T06:33:11.506Z,95299.25
2023-04-02T06:35:46.753Z,95302.61
2023-04-02T06:38:25.508Z,95307.04
2023-04-02T06:40:58.944Z,95308.97
2023-04-02T06:43:43.414Z,95306.40
2023-04-02T06:46:28.937Z,95307.17
2023-04-02T06:49:13.647Z,95302.73
2023-04-02T06:51:44.916Z,95301.10
2023-04-02T06:54:16.141Z,95307.94
2023-04-02T06:56:50.740Z,95309.71
2023-04-02T06:59:26.492Z,95309.38
2023-04-02T07:02:03.740Z,95315.17
2023-04-02T07:04:33.343Z,95312.21
2023-04-02T07:07:02.111Z,95312.82
2023-04-02T07:09:33.799Z,95312.86
2023-04-02T07:12:11.562Z,95317.36
2023-04-02T07:14:39.873Z,95326.85
2023-04-02T07:17:20.023Z,95328.60
2023-04-02T07:19:50.079Z,95327.96
2023-04-02T07:22:22.141Z,95330.84
2023-04-02T07:24:54.314Z,95340.47
2023-04-02T07:27:22.299Z,95340.30
2023-04-02T07:29:50.457Z,95341.05
2023-04-02T07:32:19.605Z,95346.11
2023-04-02T07:34:48.944Z,95348.73
2023-04-02T07:37:17.131Z,95345.77
2023-04-02T07:39:45.302Z,95352.38
2023-04-02T07:42:13.587Z,95352.73
2023-04-02T07:44:42.377Z,95356.20
2023-04-02T07:47:17.077Z,95354.71
2023-04-02T07:49:45.424Z,95356.06
2023-04-02T07:52:13.432Z,95358.94
2023-04-02T07:54:45.232Z,95358.06
2023-04-02T07:57:13.557Z,95362.40
2023-04-02T07:59:41.656Z,95362.05
2023-04-02T08:02:27.511Z,95361.26
2023-04-02T08:05:28.325Z,95360.23
2023-04-02T08:08:07.100Z,95359.28
2023-04-02T08:11:17.514Z,95361.32
2023-04-02T08:14:30.877Z,95363.60
2023-04-02T08:18:07.536Z,95364.84
2023-04-02T08:21:25.023Z,95366.00
2023-04-02T08:24:41.541Z,95372.50
2023-04-02T08:27:52.005Z,95371.08
2023-04-02T08:30:58.217Z,95370.04
2023-04-02T08:34:39.251Z,95377.27
2023-04-02T08:38:30.572Z,95380.21
2023-04-02T08:41:28.679Z,95378.45
2023-04-02T08:44:41.008Z,95379.89
2023-04-02T08:47:51.106Z,95380.10
2023-04-02T08:51:01.613Z,95385.21
2023-04-02T08:54:01.756Z,95386.46
2023-04-02T08:57:30.279Z,95387.25
2023-04-02T09:00:57.222Z,95384.81
2023-04-02T09:03:49.372Z,95389.23
2023-04-02T09:07:17.653Z,95391.91
2023-04-02T09:10:41.094Z,95398.86
2023-04-02T09:14:11.740Z,95396.17
2023-04-02T09:16:54.701Z,95403.09
2023-04-02T09:19:35.213Z,95401.66
2023-04-02T09:23:00.293Z,95396.91
2023-04-02T09:26:04.167Z,95400.38
2023-04-02T09:29:30.272Z,95402.58
2023-04-02T09:33:04.245Z,95404.05
2023-04-02T09:36:34.243Z,95408.89
2023-04-02T09:40:04.365Z,95407.04
2023-04-02T09:43:19.699Z,95408.48
2023-04-02T09:46:34.276Z,95410.08
2023-04-02T09:49:55.232Z,95407.31
2023-04-02T09:53:45.025Z,95404.92
2023-04-02T09:56:55.811Z,95406.60
2023-04-02T09:59:47.543Z,95406.29
2023-04-02T10:02:48.672Z,95404.86
2023-04-02T10:05:50.252Z,95410.30
2023-04-02T10:09:46.272Z,95409.32
2023-04-02T10:13:09.417Z,95407.48
2023-04-02T10:16:57.360Z,95409.67
2023-04-02T10:19:56.705Z,95408.20
2023-04-02T10:23:06.586Z,95405.79
2023-04-02T10:25:58.310Z,95407.38
2023-04-02T10:29:33.294Z,95409.95
2023-04-02T10:33:08.274Z,95408.33
2023-04-02T10:36:37.303Z,95413.41
2023-04-02T10:43:36.963Z,95409.20
2023-04-02T10:47:38.153Z,95406.42
2023-04-02T10:59:08.229Z,95418.39
2023-04-02T11:02:28.585Z,95420.08
2023-04-02T11:05:29.228Z,95419.38
2023-04-02T11:08:42.291Z,95416.19
2023-04-02T11:12:08.286Z,95417.73
2023-04-02T11:15:51.346Z,95418.42
2023-04-02T11:19:16.199Z,95420.33
2023-04-02T11:22:55.213Z,95419.84
2023-04-02T11:25:56.242Z,95424.55
2023-04-02T11:29:27.583Z,95420.73
2023-04-02T11:32:27.143Z,95423.58
2023-04-02T11:35:06.708Z,95426.99
2023-04-02T11:37:41.117Z,95422.70
2023-04-02T11:40:41.998Z,95424.61
2023-04-02T11:43:41.929Z,95428.95
2023-04-02T11:46:37.149Z,95430.23
2023-04-02T11:49:42.432Z,95430.81
2023-04-02T11:52:24.749Z,95436.30
2023-04-02T11:55:06.564Z,95442.67
2023-04-02T11:57:51.266Z,95443.13
2023-04-02T12:00:33.507Z,95439.94
2023-04-02T12:03:25.693Z,95439.14
2023-04-02T12:06:33.273Z,95439.52
2023-04-02T12:09:22.558Z,95436.05
2023-04-02T12:11:53.999Z,95439.96
2023-04-02T12:14:53.890Z,95439.16
2023-04-02T12:17:31.557Z,95444.13
2023-04-02T12:20:08.490Z,95444.48
2023-04-02T12:22:40.570Z,95444.16
2023-04-02T12:25:31.765Z,95444.95
2023-04-02T12:28:18.602Z,95443.31
2023-04-02T12:30:48.720Z,95444.61
2023-04-02T12:33:30.627Z,95439.61
2023-04-02T12:36:01.431Z,95442.35
2023-04-02T12:38:34.435Z,95441.84
2023-04-02T12:41:05.582Z,95441.38
2023-04-02T12:43:37.690Z,95440.48
2023-04-02T12:46:10.012Z,95440.89
2023-04-02T12:48:39.728Z,95441.80
2023-04-02T12:51:11.170Z,95438.65
2023-04-02T12:53:42.196Z,95443.05
2023-04-02T12:56:21.680Z,95441.27
2023-04-02T12:58:56.624Z,95441.06
2023-04-02T13:01:28.492Z,95444.46
2023-04-02T13:04:08.444Z,95443.83
2023-04-02T13:06:37.582Z,95445.23
2023-04-02T13:09:28.731Z,95445.98
2023-04-02T13:11:57.630Z,95444.13
2023-04-02T13:14:26.651Z,95440.05
2023-04-02T13:16:55.575Z,95445.20
2023-04-02T13:19:29.119Z,95444.59
2023-04-02T13:22:00.199Z,95448.81
2023-04-02T13:24:33.213Z,95452.33
2023-04-02T13:27:12.383Z,95449.83
2023-04-02T13:29:41.633Z,95447.70
2023-04-02T13:32:13.179Z,95448.23
2023-04-02T13:34:41.215Z,95450.70
2023-04-02T13:37:12.763Z,95448.98
2023-04-02T13:39:40.947Z,95453.18
2023-04-02T13:42:12.148Z,95454.47
2023-04-02T13:44:43.043Z,95454.71
2023-04-02T13:47:14.811Z,95451.29
2023-04-02T13:49:42.632Z,95449.70
2023-04-02T13:52:17.559Z,95451.89
2023-04-02T13:54:51.417Z,95450.35
2023-04-02T13:57:19.740Z,95458.20
2023-04-02T13:59:47.857Z,95453.02
2023-04-02T14:02:18.952Z,95455.31
2023-04-02T14:04:51.411Z,95457.89
2023-04-02T14:07:38.281Z,95457.60
2023-04-02T14:10:42.965Z,95458.55
2023-04-02T14:13:31.110Z,95456.31
2023-04-02T14:16:34.706Z,95452.84
2023-04-02T14:20:28.268Z,95456.12
2023-04-02T14:24:27.200Z,95456.06
2023-04-02T14:28:04.236Z,95461.98
2023-04-02T14:32:04.169Z,95458.92
2023-04-02T14:35:40.845Z,95458.58
2023-04-02T14:39:31.219Z,95459.82
2023-04-02T14:43:23.195Z,95454.23
2023-04-02T14:46:36.206Z,95457.74
2023-04-02T14:50:08.220Z,95456.79
2023-04-02T14:53:54.282Z,95455.10
2023-04-02T14:58:14.178Z,95457.09
2023-04-02T15:01:54.270Z,95461.27
2023-04-02T15:05:41.184Z,95463.06
2023-04-02T15:09:36.200Z,95461.22
2023-04-02T15:13:22.244Z,95457.59
2023-04-02T15:17:07.211Z,95462.39
2023-04-02T15:21:23.283Z,95461.11
2023-04-02T15:29:28.857Z,95466.82
2023-04-02T15:33:02.313Z,95466.83
2023-04-02T15:36:36.315Z,95474.98
2023-04-02T15:43:22.264Z,95478.48
2023-04-02T15:46:58.181Z,95478.83
2023-04-02T15:50:34.501Z,95480.88
2023-04-02T15:54:04.160Z,95487.69
2023-04-02T16:01:59.262Z,95500.61
2023-04-02T16:13:10.398Z,95517.45
2023-04-02T16:16:30.226Z,95517.73
2023-04-02T16:20:10.203Z,95519.58
2023-04-02T16:27:58.266Z,95528.27
2023-04-02T16:31:56.236Z,95528.45
2023-04-02T16:35:56.571Z,95531.33
2023-04-02T16:39:16.411Z,95541.29
2023-04-02T16:43:00.318Z,95546.23
2023-04-02T16:46:59.373Z,95548.33
2023-04-02T16:50:41.206Z,95547.16
2023-04-02T16:54:28.241Z,95552.95
2023-04-02T16:58:20.271Z,95553.85
2023-04-02T17:01:52.230Z,95556.67
2023-04-02T17:05:54.255Z,95558.88
2023-04-02T17:09:46.582Z,95559.87
2023-04-02T17:12:47.926Z,95561.39
2023-04-02T17:15:37.492Z,95565.55
2023-04-02T17:18:16.549Z,95571.84
2023-04-02T17:20:44.778Z,95575.94
2023-04-02T17:23:14.257Z,95577.31
2023-04-02T17:25:57.345Z,95580.81
2023-04-02T17:28:29.421Z,95594.17
2023-04-02T17:31:00.417Z,95589.13
2023-04-02T17:33:49.200Z,95593.00
2023-04-02T17:37:40.291Z,95597.06
2023-04-02T17:41:29.026Z,95599.95
2023-04-02T17:49:21.317Z,95608.66
2023-04-02T17:53:14.242Z,95610.39
2023-04-02T17:56:43.289Z,95610.44
2023-04-02T18:00:18.259Z,95615.33
2023-04-02T18:04:08.193Z,95618.57
2023-04-02T18:11:31.759Z,95625.98
2023-04-02T18:15:30.538Z,95630.40
2023-04-02T18:19:05.322Z,95633.78
2023-04-02T18:30:47.320Z,95641.15
2023-04-02T18:34:21.221Z,95644.39
2023-04-02T18:38:13.265Z,95640.13
2023-04-02T18:42:00.223Z,95637.75
2023-04-02T18:45:52.317Z,95642.23
2023-04-02T18:49:47.195Z,95646.55
2023-04-02T18:53:42.266Z,95645.53
2023-04-02T18:57:37.285Z,95651.26
2023-04-02T19:01:12.359Z,95647.44
2023-04-02T19:04:42.186Z,95651.58
2023-04-02T19:08:20.211Z,95648.82
2023-04-02T19:12:31.183Z,95650.88
2023-04-02T19:20:18.639Z,95651.19
2023-04-02T19:23:44.641Z,95655.17
2023-04-02T19:27:24.342Z,95660.64
2023-04-02T19:30:46.225Z,95663.36
2023-04-02T19:34:26.297Z,95660.45
2023-04-02T19:37:57.300Z,95667.26
2023-04-02T19:41:14.519Z,95666.67
2023-04-02T19:43:45.045Z,95670.49
2023-04-02T19:46:13.128Z,95673.75
2023-04-02T19:48:57.391Z,95671.96
2023-04-02T19:51:26.426Z,95674.69
2023-04-02T19:53:54.855Z,95675.79
2023-04-02T19:56:23.238Z,95675.02
2023-04-02T19:58:51.422Z,95677.20
2023-04-02T20:01:19.886Z,95679.90
2023-04-02T20:03:48.100Z,95687.44
2023-04-02T20:06:16.259Z,95686.80
2023-04-02T20:08:45.342Z,95694.10
2023-04-02T20:11:13.775Z,95694.94
2023-04-02T20:13:41.834Z,95700.87
2023-04-02T20:16:10.104Z,95697.78
2023-04-02T20:18:38.509Z,95703.56
2023-04-02T20:21:08.036Z,95706.11
2023-04-02T20:23:36.646Z,95703.77
2023-04-02T20:26:05.679Z,95705.53
2023-04-02T20:28:34.096Z,95699.77
2023-04-02T20:31:18.868Z,95704.36
2023-04-02T20:33:48.407Z,95701.64
2023-04-02T20:36:17.871Z,95703.12
2023-04-02T20:38:46.562Z,95698.90
2023-04-02T20:41:16.290Z,95696.90
2023-04-02T20:43:44.893Z,95699.68
2023-04-02T20:46:14.076Z,95699.39
2023-04-02T20:48:43.254Z,95696.80
2023-04-02T20:51:16.773Z,95698.52
2023-04-02T20:53:44.962Z,95695.32
2023-04-02T20:56:15.997Z,95696.64
2023-04-02T20:58:44.677Z,95701.34
2023-04-02T21:01:20.558Z,95695.25
2023-04-02T21:03:50.387Z,95698.49
2023-04-02T21:06:21.379Z,95698.29
2023-04-02T21:08:50.413Z,95706.06
2023-04-02T21:11:19.276Z,95703.11
2023-04-02T21:13:47.542Z,95699.66
2023-04-02T21:16:22.331Z,95706.38
2023-04-02T21:18:52.247Z,95707.81
2023-04-02T21:21:22.840Z,95706.47
2023-04-02T21:24:00.438Z,95702.83
2023-04-02T21:26:34.837Z,95702.76
2023-04-02T21:29:04.204Z,95701.25
2023-04-02T21:31:37.242Z,95699.79
2023-04-02T21:34:08.316Z,95702.02
2023-04-02T21:36:39.893Z,95703.98
2023-04-02T21:39:10.589Z,95704.87
2023-04-02T21:41:41.762Z,95704.52
2023-04-02T21:44:13.519Z,95704.77
2023-04-02T21:46:42.816Z,95706.86
2023-04-02T21:49:14.274Z,95708.30
2023-04-02T21:51:44.340Z,95708.53
2023-04-02T21:54:13.219Z,95707.59
2023-04-02T21:56:43.443Z,95708.26
2023-04-02T21:59:13.749Z,95708.67
2023-04-02T22:01:46.114Z,95707.65
2023-04-02T22:04:19.146Z,95710.73
2023-04-02T22:06:47.954Z,95709.48
2023-04-02T22:09:19.470Z,95713.25
2023-04-02T22:11:50.834Z,95711.71
2023-04-02T22:14:18.767Z,95713.50
2023-04-02T22:16:46.795Z,95713.71
2023-04-02T22:19:16.838Z,95713.23
2023-04-02T22:21:46.203Z,95712.44
2023-04-02T22:24:18.928Z,95716.98
2023-04-02T22:26:47.360Z,95719.27
2023-04-02T22:29:15.740Z,95718.13
2023-04-02T22:31:44.533Z,95718.04
2023-04-02T22:34:12.916Z,95719.67
2023-04-02T22:36:41.265Z,95718.60
2023-04-02T22:39:18.684Z,95720.06
2023-04-02T22:41:46.876Z,95725.39
2023-04-02T22:44:15.856Z,95726.05
2023-04-02T22:47:18.267Z,95723.38
2023-04-02T22:50:56.163Z,95721.82
2023-04-02T22:54:42.307Z,95723.45
2023-04-02T22:58:13.318Z,95725.58
2023-04-02T23:01:47.278Z,95729.98
2023-04-02T23:05:20.268Z,95731.23
2023-04-02T23:08:53.272Z,95735.64
2023-04-02T23:12:14.216Z,95739.59
2023-04-02T23:15:35.334Z,95742.80
2023-04-02T23:19:18.721Z,95742.91
2023-04-02T23:22:40.607Z,95746.21
2023-04-02T23:25:50.246Z,95741.30
2023-04-02T23:29:27.236Z,95744.81
2023-04-02T23:33:04.555Z,95746.80
2023-04-02T23:36:37.471Z,95747.27
2023-04-02T23:40:09.228Z,95750.08
2023-04-02T23:43:50.231Z,95751.11
2023-04-02T23:47:27.350Z,95756.29
2023-04-02T23:50:58.195Z,95762.08
2023-04-02T23:57:42.260Z,95759.72
